sensor_id;sensor_type;location;lat;lon;timestamp;P1;durP1;ratioP1;P2;durP2;ratioP2
55218;SDS011;65463;43.864;20.136;2023-02-02T00:00:38;46.72;;;21.83;;
55218;SDS011;65463;43.864;20.136;2023-02-02T00:03:04;49.35;;;23.65;;
55218;SDS011;65463;43.864;20.136;2023-02-02T00:05:30;51.13;;;21.83;;
55218;SDS011;65463;43.864;20.136;2023-02-02T00:07:56;45.38;;;19.88;;
55218;SDS011;65463;43.864;20.136;2023-02-02T00:10:22;40.17;;;18.95;;
55218;SDS011;65463;43.864;20.136;2023-02-02T00:12:48;47.28;;;19.98;;
55218;SDS011;65463;43.864;20.136;2023-02-02T00:15:14;52.80;;;21.92;;
55218;SDS011;65463;43.864;20.136;2023-02-02T00:17:41;52.53;;;24.70;;
55218;SDS011;65463;43.864;20.136;2023-02-02T00:20:07;45.22;;;21.17;;
55218;SDS011;65463;43.864;20.136;2023-02-02T00:22:33;49.00;;;20.88;;
55218;SDS011;65463;43.864;20.136;2023-02-02T00:24:59;45.22;;;21.20;;
55218;SDS011;65463;43.864;20.136;2023-02-02T00:27:25;47.78;;;22.35;;
55218;SDS011;65463;43.864;20.136;2023-02-02T00:29:52;50.05;;;21.77;;
55218;SDS011;65463;43.864;20.136;2023-02-02T00:32:18;44.08;;;20.50;;
55218;SDS011;65463;43.864;20.136;2023-02-02T00:34:44;49.88;;;20.83;;
55218;SDS011;65463;43.864;20.136;2023-02-02T00:37:11;53.80;;;21.85;;
55218;SDS011;65463;43.864;20.136;2023-02-02T00:39:37;47.17;;;22.83;;
55218;SDS011;65463;43.864;20.136;2023-02-02T00:42:03;51.50;;;23.55;;
55218;SDS011;65463;43.864;20.136;2023-02-02T00:44:29;53.08;;;23.15;;
55218;SDS011;65463;43.864;20.136;2023-02-02T00:47:14;47.60;;;23.20;;
55218;SDS011;65463;43.864;20.136;2023-02-02T00:49:40;49.33;;;22.50;;
55218;SDS011;65463;43.864;20.136;2023-02-02T00:52:07;44.97;;;20.52;;
55218;SDS011;65463;43.864;20.136;2023-02-02T00:54:33;56.33;;;20.25;;
55218;SDS011;65463;43.864;20.136;2023-02-02T00:57:08;62.92;;;24.70;;
55218;SDS011;65463;43.864;20.136;2023-02-02T00:59:35;78.85;;;30.67;;
55218;SDS011;65463;43.864;20.136;2023-02-02T01:02:01;80.57;;;29.45;;
55218;SDS011;65463;43.864;20.136;2023-02-02T01:04:27;66.47;;;22.27;;
55218;SDS011;65463;43.864;20.136;2023-02-02T01:06:53;64.75;;;21.67;;
55218;SDS011;65463;43.864;20.136;2023-02-02T01:09:19;62.78;;;21.90;;
55218;SDS011;65463;43.864;20.136;2023-02-02T01:11:47;70.78;;;22.92;;
55218;SDS011;65463;43.864;20.136;2023-02-02T01:14:13;61.30;;;25.38;;
55218;SDS011;65463;43.864;20.136;2023-02-02T01:16:39;68.50;;;27.20;;
55218;SDS011;65463;43.864;20.136;2023-02-02T01:19:05;69.53;;;28.20;;
55218;SDS011;65463;43.864;20.136;2023-02-02T01:21:31;64.10;;;28.15;;
55218;SDS011;65463;43.864;20.136;2023-02-02T01:23:57;72.03;;;29.15;;
55218;SDS011;65463;43.864;20.136;2023-02-02T01:26:24;75.40;;;28.73;;
55218;SDS011;65463;43.864;20.136;2023-02-02T01:28:50;75.43;;;26.55;;
55218;SDS011;65463;43.864;20.136;2023-02-02T01:31:17;73.13;;;27.75;;
55218;SDS011;65463;43.864;20.136;2023-02-02T01:33:44;72.35;;;28.77;;
55218;SDS011;65463;43.864;20.136;2023-02-02T01:36:20;71.38;;;27.00;;
55218;SDS011;65463;43.864;20.136;2023-02-02T01:38:47;55.72;;;23.77;;
55218;SDS011;65463;43.864;20.136;2023-02-02T01:41:18;42.22;;;19.17;;
55218;SDS011;65463;43.864;20.136;2023-02-02T01:49:12;62.10;;;27.05;;
55218;SDS011;65463;43.864;20.136;2023-02-02T01:54:13;54.75;;;25.50;;
55218;SDS011;65463;43.864;20.136;2023-02-02T01:56:41;56.97;;;26.63;;
55218;SDS011;65463;43.864;20.136;2023-02-02T01:59:09;49.40;;;22.45;;
55218;SDS011;65463;43.864;20.136;2023-02-02T02:01:39;42.33;;;21.05;;
55218;SDS011;65463;43.864;20.136;2023-02-02T02:04:06;39.97;;;18.42;;
55218;SDS011;65463;43.864;20.136;2023-02-02T02:06:32;44.22;;;20.25;;
55218;SDS011;65463;43.864;20.136;2023-02-02T02:09:00;40.83;;;20.10;;
55218;SDS011;65463;43.864;20.136;2023-02-02T02:11:30;42.33;;;20.50;;
55218;SDS011;65463;43.864;20.136;2023-02-02T02:13:57;47.78;;;21.88;;
55218;SDS011;65463;43.864;20.136;2023-02-02T02:16:57;45.50;;;22.15;;
55218;SDS011;65463;43.864;20.136;2023-02-02T02:22:12;40.80;;;19.67;;
55218;SDS011;65463;43.864;20.136;2023-02-02T02:33:31;36.97;;;16.70;;
55218;SDS011;65463;43.864;20.136;2023-02-02T02:36:07;43.25;;;18.20;;
55218;SDS011;65463;43.864;20.136;2023-02-02T02:38:36;37.55;;;18.00;;
55218;SDS011;65463;43.864;20.136;2023-02-02T02:41:13;36.25;;;17.67;;
55218;SDS011;65463;43.864;20.136;2023-02-02T02:43:40;33.85;;;16.67;;
55218;SDS011;65463;43.864;20.136;2023-02-02T02:46:10;32.95;;;16.20;;
55218;SDS011;65463;43.864;20.136;2023-02-02T02:48:37;34.63;;;17.05;;
55218;SDS011;65463;43.864;20.136;2023-02-02T02:53:48;37.75;;;16.95;;
55218;SDS011;65463;43.864;20.136;2023-02-02T02:56:29;39.92;;;20.55;;
55218;SDS011;65463;43.864;20.136;2023-02-02T02:59:10;40.55;;;20.98;;
55218;SDS011;65463;43.864;20.136;2023-02-02T03:04:05;51.65;;;25.05;;
55218;SDS011;65463;43.864;20.136;2023-02-02T03:09:12;49.60;;;24.38;;
55218;SDS011;65463;43.864;20.136;2023-02-02T03:11:40;52.53;;;25.98;;
55218;SDS011;65463;43.864;20.136;2023-02-02T03:14:06;53.35;;;26.50;;
55218;SDS011;65463;43.864;20.136;2023-02-02T03:16:36;52.47;;;26.10;;
55218;SDS011;65463;43.864;20.136;2023-02-02T03:19:03;50.85;;;24.52;;
55218;SDS011;65463;43.864;20.136;2023-02-02T03:21:30;51.20;;;25.60;;
55218;SDS011;65463;43.864;20.136;2023-02-02T03:23:57;51.65;;;25.13;;
55218;SDS011;65463;43.864;20.136;2023-02-02T03:26:23;50.78;;;24.17;;
55218;SDS011;65463;43.864;20.136;2023-02-02T03:28:51;45.20;;;24.05;;
55218;SDS011;65463;43.864;20.136;2023-02-02T03:31:18;49.35;;;23.88;;
55218;SDS011;65463;43.864;20.136;2023-02-02T03:33:44;48.03;;;23.17;;
55218;SDS011;65463;43.864;20.136;2023-02-02T03:36:11;44.50;;;22.58;;
55218;SDS011;65463;43.864;20.136;2023-02-02T03:38:37;45.08;;;22.17;;
55218;SDS011;65463;43.864;20.136;2023-02-02T03:41:04;43.67;;;22.45;;
55218;SDS011;65463;43.864;20.136;2023-02-02T03:43:30;43.28;;;21.60;;
55218;SDS011;65463;43.864;20.136;2023-02-02T03:45:57;49.80;;;24.00;;
55218;SDS011;65463;43.864;20.136;2023-02-02T03:48:23;48.60;;;23.23;;
55218;SDS011;65463;43.864;20.136;2023-02-02T03:50:50;46.35;;;23.17;;
55218;SDS011;65463;43.864;20.136;2023-02-02T03:53:16;49.30;;;24.58;;
55218;SDS011;65463;43.864;20.136;2023-02-02T03:55:42;47.33;;;24.48;;
55218;SDS011;65463;43.864;20.136;2023-02-02T03:58:08;50.75;;;23.75;;
55218;SDS011;65463;43.864;20.136;2023-02-02T04:00:35;49.47;;;23.15;;
55218;SDS011;65463;43.864;20.136;2023-02-02T04:03:01;43.35;;;22.95;;
55218;SDS011;65463;43.864;20.136;2023-02-02T04:05:27;47.53;;;22.80;;
55218;SDS011;65463;43.864;20.136;2023-02-02T04:07:53;50.58;;;24.00;;
55218;SDS011;65463;43.864;20.136;2023-02-02T04:10:19;47.70;;;22.95;;
55218;SDS011;65463;43.864;20.136;2023-02-02T04:12:46;47.38;;;23.05;;
55218;SDS011;65463;43.864;20.136;2023-02-02T04:15:12;46.28;;;23.23;;
55218;SDS011;65463;43.864;20.136;2023-02-02T04:17:38;48.22;;;23.10;;
55218;SDS011;65463;43.864;20.136;2023-02-02T04:20:05;44.60;;;21.92;;
55218;SDS011;65463;43.864;20.136;2023-02-02T04:22:31;45.72;;;22.67;;
55218;SDS011;65463;43.864;20.136;2023-02-02T04:24:58;42.95;;;21.25;;
55218;SDS011;65463;43.864;20.136;2023-02-02T04:27:24;48.38;;;22.45;;
55218;SDS011;65463;43.864;20.136;2023-02-02T04:29:50;51.65;;;23.40;;
55218;SDS011;65463;43.864;20.136;2023-02-02T04:32:17;46.53;;;22.90;;
55218;SDS011;65463;43.864;20.136;2023-02-02T04:34:43;48.50;;;22.48;;
55218;SDS011;65463;43.864;20.136;2023-02-02T04:37:10;46.25;;;23.42;;
55218;SDS011;65463;43.864;20.136;2023-02-02T04:39:36;48.85;;;23.95;;
55218;SDS011;65463;43.864;20.136;2023-02-02T04:42:03;46.85;;;23.23;;
55218;SDS011;65463;43.864;20.136;2023-02-02T04:44:29;47.17;;;23.60;;
55218;SDS011;65463;43.864;20.136;2023-02-02T04:46:55;46.30;;;23.90;;
55218;SDS011;65463;43.864;20.136;2023-02-02T04:49:21;50.03;;;25.77;;
55218;SDS011;65463;43.864;20.136;2023-02-02T04:51:47;47.63;;;23.40;;
55218;SDS011;65463;43.864;20.136;2023-02-02T04:54:14;47.45;;;21.90;;
55218;SDS011;65463;43.864;20.136;2023-02-02T04:56:40;46.30;;;23.33;;
55218;SDS011;65463;43.864;20.136;2023-02-02T04:59:06;41.58;;;22.40;;
55218;SDS011;65463;43.864;20.136;2023-02-02T05:01:33;43.95;;;22.58;;
55218;SDS011;65463;43.864;20.136;2023-02-02T05:03:59;53.50;;;27.75;;
55218;SDS011;65463;43.864;20.136;2023-02-02T05:06:25;46.33;;;24.55;;
55218;SDS011;65463;43.864;20.136;2023-02-02T05:08:51;53.30;;;26.35;;
55218;SDS011;65463;43.864;20.136;2023-02-02T05:11:18;57.25;;;25.35;;
55218;SDS011;65463;43.864;20.136;2023-02-02T05:13:45;46.13;;;23.67;;
55218;SDS011;65463;43.864;20.136;2023-02-02T05:16:11;49.10;;;22.65;;
55218;SDS011;65463;43.864;20.136;2023-02-02T05:18:37;45.90;;;23.92;;
55218;SDS011;65463;43.864;20.136;2023-02-02T05:21:04;44.13;;;22.27;;
55218;SDS011;65463;43.864;20.136;2023-02-02T05:23:30;44.63;;;24.52;;
55218;SDS011;65463;43.864;20.136;2023-02-02T05:25:56;54.17;;;26.50;;
55218;SDS011;65463;43.864;20.136;2023-02-02T05:28:22;49.72;;;25.45;;
55218;SDS011;65463;43.864;20.136;2023-02-02T05:30:49;48.83;;;24.38;;
55218;SDS011;65463;43.864;20.136;2023-02-02T05:33:15;51.08;;;26.10;;
55218;SDS011;65463;43.864;20.136;2023-02-02T05:35:44;50.22;;;25.58;;
55218;SDS011;65463;43.864;20.136;2023-02-02T05:38:11;54.28;;;25.42;;
55218;SDS011;65463;43.864;20.136;2023-02-02T05:40:37;50.40;;;25.30;;
55218;SDS011;65463;43.864;20.136;2023-02-02T05:43:03;44.30;;;23.52;;
55218;SDS011;65463;43.864;20.136;2023-02-02T05:45:30;49.30;;;23.88;;
55218;SDS011;65463;43.864;20.136;2023-02-02T05:47:57;49.80;;;25.58;;
55218;SDS011;65463;43.864;20.136;2023-02-02T05:50:23;47.88;;;24.13;;
55218;SDS011;65463;43.864;20.136;2023-02-02T05:52:49;50.42;;;24.95;;
55218;SDS011;65463;43.864;20.136;2023-02-02T05:55:16;50.75;;;23.60;;
55218;SDS011;65463;43.864;20.136;2023-02-02T05:57:44;46.08;;;22.55;;
55218;SDS011;65463;43.864;20.136;2023-02-02T06:00:10;50.72;;;23.27;;
55218;SDS011;65463;43.864;20.136;2023-02-02T06:02:36;46.40;;;22.27;;
55218;SDS011;65463;43.864;20.136;2023-02-02T06:05:02;45.55;;;21.83;;
55218;SDS011;65463;43.864;20.136;2023-02-02T06:07:29;48.05;;;23.42;;
55218;SDS011;65463;43.864;20.136;2023-02-02T06:09:55;45.38;;;22.85;;
55218;SDS011;65463;43.864;20.136;2023-02-02T06:12:22;50.78;;;24.65;;
55218;SDS011;65463;43.864;20.136;2023-02-02T06:14:48;45.42;;;22.77;;
55218;SDS011;65463;43.864;20.136;2023-02-02T06:17:14;48.80;;;23.98;;
55218;SDS011;65463;43.864;20.136;2023-02-02T06:19:40;46.50;;;22.80;;
55218;SDS011;65463;43.864;20.136;2023-02-02T06:22:06;43.40;;;23.30;;
55218;SDS011;65463;43.864;20.136;2023-02-02T06:24:33;49.60;;;24.83;;
55218;SDS011;65463;43.864;20.136;2023-02-02T06:26:59;47.33;;;24.52;;
55218;SDS011;65463;43.864;20.136;2023-02-02T06:29:25;50.30;;;23.45;;
55218;SDS011;65463;43.864;20.136;2023-02-02T06:31:51;48.63;;;22.58;;
55218;SDS011;65463;43.864;20.136;2023-02-02T06:34:17;49.35;;;23.08;;
55218;SDS011;65463;43.864;20.136;2023-02-02T06:36:44;50.28;;;25.42;;
55218;SDS011;65463;43.864;20.136;2023-02-02T06:39:10;47.85;;;23.17;;
55218;SDS011;65463;43.864;20.136;2023-02-02T06:41:36;51.08;;;24.13;;
55218;SDS011;65463;43.864;20.136;2023-02-02T06:44:02;57.78;;;26.52;;
55218;SDS011;65463;43.864;20.136;2023-02-02T06:46:29;61.33;;;27.92;;
55218;SDS011;65463;43.864;20.136;2023-02-02T06:48:55;60.13;;;26.90;;
55218;SDS011;65463;43.864;20.136;2023-02-02T06:51:21;62.35;;;27.33;;
55218;SDS011;65463;43.864;20.136;2023-02-02T06:53:48;58.90;;;30.27;;
55218;SDS011;65463;43.864;20.136;2023-02-02T06:56:14;69.60;;;27.48;;
55218;SDS011;65463;43.864;20.136;2023-02-02T06:58:40;70.25;;;29.52;;
55218;SDS011;65463;43.864;20.136;2023-02-02T07:01:09;90.88;;;34.60;;
55218;SDS011;65463;43.864;20.136;2023-02-02T07:03:36;99.15;;;38.53;;
55218;SDS011;65463;43.864;20.136;2023-02-02T07:06:12;95.47;;;38.10;;
55218;SDS011;65463;43.864;20.136;2023-02-02T07:08:39;107.22;;;40.38;;
55218;SDS011;65463;43.864;20.136;2023-02-02T07:11:05;109.80;;;44.17;;
55218;SDS011;65463;43.864;20.136;2023-02-02T07:13:31;87.15;;;37.85;;
55218;SDS011;65463;43.864;20.136;2023-02-02T07:15:58;92.97;;;38.15;;
55218;SDS011;65463;43.864;20.136;2023-02-02T07:18:24;103.07;;;37.58;;
55218;SDS011;65463;43.864;20.136;2023-02-02T07:20:50;90.85;;;35.88;;
55218;SDS011;65463;43.864;20.136;2023-02-02T07:23:16;90.82;;;33.85;;
55218;SDS011;65463;43.864;20.136;2023-02-02T07:25:42;95.10;;;37.58;;
55218;SDS011;65463;43.864;20.136;2023-02-02T07:28:09;106.97;;;36.83;;
55218;SDS011;65463;43.864;20.136;2023-02-02T07:30:35;109.72;;;36.20;;
55218;SDS011;65463;43.864;20.136;2023-02-02T07:33:01;133.30;;;43.25;;
55218;SDS011;65463;43.864;20.136;2023-02-02T07:35:27;166.30;;;56.75;;
55218;SDS011;65463;43.864;20.136;2023-02-02T07:37:53;158.98;;;51.72;;
55218;SDS011;65463;43.864;20.136;2023-02-02T07:40:20;126.78;;;47.67;;
55218;SDS011;65463;43.864;20.136;2023-02-02T07:42:46;145.85;;;47.60;;
55218;SDS011;65463;43.864;20.136;2023-02-02T07:45:13;150.45;;;46.00;;
55218;SDS011;65463;43.864;20.136;2023-02-02T07:47:39;137.85;;;46.72;;
55218;SDS011;65463;43.864;20.136;2023-02-02T07:50:05;132.15;;;46.15;;
55218;SDS011;65463;43.864;20.136;2023-02-02T07:52:31;107.25;;;43.17;;
55218;SDS011;65463;43.864;20.136;2023-02-02T07:54:57;105.50;;;39.78;;
55218;SDS011;65463;43.864;20.136;2023-02-02T07:57:24;236.82;;;121.82;;
55218;SDS011;65463;43.864;20.136;2023-02-02T07:59:50;97.32;;;41.17;;
55218;SDS011;65463;43.864;20.136;2023-02-02T08:02:16;147.15;;;66.35;;
55218;SDS011;65463;43.864;20.136;2023-02-02T08:04:42;100.70;;;38.30;;
55218;SDS011;65463;43.864;20.136;2023-02-02T08:07:08;96.82;;;37.40;;
55218;SDS011;65463;43.864;20.136;2023-02-02T08:09:34;113.80;;;41.80;;
55218;SDS011;65463;43.864;20.136;2023-02-02T08:12:00;139.73;;;45.35;;
55218;SDS011;65463;43.864;20.136;2023-02-02T08:14:27;134.02;;;43.35;;
55218;SDS011;65463;43.864;20.136;2023-02-02T08:16:53;189.45;;;49.40;;
55218;SDS011;65463;43.864;20.136;2023-02-02T08:19:20;123.00;;;45.97;;
55218;SDS011;65463;43.864;20.136;2023-02-02T08:21:46;190.48;;;72.57;;
55218;SDS011;65463;43.864;20.136;2023-02-02T08:24:12;137.55;;;42.92;;
55218;SDS011;65463;43.864;20.136;2023-02-02T08:26:38;125.03;;;46.60;;
55218;SDS011;65463;43.864;20.136;2023-02-02T08:29:05;124.40;;;46.42;;
55218;SDS011;65463;43.864;20.136;2023-02-02T08:31:35;121.13;;;51.35;;
55218;SDS011;65463;43.864;20.136;2023-02-02T08:34:02;87.68;;;41.50;;
55218;SDS011;65463;43.864;20.136;2023-02-02T08:36:29;103.25;;;41.17;;
55218;SDS011;65463;43.864;20.136;2023-02-02T08:38:58;115.75;;;41.35;;
55218;SDS011;65463;43.864;20.136;2023-02-02T08:41:25;113.93;;;47.55;;
55218;SDS011;65463;43.864;20.136;2023-02-02T08:43:51;91.55;;;40.55;;
55218;SDS011;65463;43.864;20.136;2023-02-02T08:46:17;140.32;;;67.13;;
55218;SDS011;65463;43.864;20.136;2023-02-02T08:48:44;100.03;;;38.47;;
55218;SDS011;65463;43.864;20.136;2023-02-02T08:51:11;71.65;;;37.83;;
55218;SDS011;65463;43.864;20.136;2023-02-02T08:53:39;85.30;;;38.50;;
55218;SDS011;65463;43.864;20.136;2023-02-02T08:56:09;99.97;;;33.97;;
55218;SDS011;65463;43.864;20.136;2023-02-02T08:58:35;94.22;;;32.88;;
55218;SDS011;65463;43.864;20.136;2023-02-02T09:01:18;132.77;;;48.95;;
55218;SDS011;65463;43.864;20.136;2023-02-02T09:03:45;97.20;;;33.38;;
55218;SDS011;65463;43.864;20.136;2023-02-02T09:06:12;87.97;;;33.25;;
55218;SDS011;65463;43.864;20.136;2023-02-02T09:08:38;79.55;;;30.25;;
55218;SDS011;65463;43.864;20.136;2023-02-02T09:11:08;76.70;;;31.40;;
55218;SDS011;65463;43.864;20.136;2023-02-02T09:16:01;73.68;;;30.42;;
55218;SDS011;65463;43.864;20.136;2023-02-02T09:18:28;88.20;;;37.55;;
55218;SDS011;65463;43.864;20.136;2023-02-02T09:20:54;69.32;;;27.73;;
55218;SDS011;65463;43.864;20.136;2023-02-02T09:23:23;68.80;;;24.30;;
55218;SDS011;65463;43.864;20.136;2023-02-02T09:25:50;63.97;;;23.90;;
55218;SDS011;65463;43.864;20.136;2023-02-02T09:28:16;49.75;;;20.58;;
55218;SDS011;65463;43.864;20.136;2023-02-02T09:30:42;51.75;;;22.80;;
55218;SDS011;65463;43.864;20.136;2023-02-02T09:33:08;56.60;;;23.58;;
55218;SDS011;65463;43.864;20.136;2023-02-02T09:35:34;78.55;;;34.67;;
55218;SDS011;65463;43.864;20.136;2023-02-02T09:38:00;70.22;;;26.33;;
55218;SDS011;65463;43.864;20.136;2023-02-02T09:40:27;58.17;;;26.17;;
55218;SDS011;65463;43.864;20.136;2023-02-02T09:48:30;46.17;;;18.90;;
55218;SDS011;65463;43.864;20.136;2023-02-02T09:51:02;40.67;;;20.02;;
55218;SDS011;65463;43.864;20.136;2023-02-02T09:55:57;43.03;;;17.27;;
55218;SDS011;65463;43.864;20.136;2023-02-02T09:58:35;32.42;;;15.35;;
55218;SDS011;65463;43.864;20.136;2023-02-02T10:01:25;31.42;;;13.98;;
55218;SDS011;65463;43.864;20.136;2023-02-02T10:04:11;35.53;;;15.38;;
55218;SDS011;65463;43.864;20.136;2023-02-02T10:06:59;25.55;;;11.13;;
55218;SDS011;65463;43.864;20.136;2023-02-02T10:09:38;10.77;;;6.55;;
55218;SDS011;65463;43.864;20.136;2023-02-02T10:17:33;14.93;;;7.90;;
55218;SDS011;65463;43.864;20.136;2023-02-02T10:20:07;15.63;;;7.50;;
55218;SDS011;65463;43.864;20.136;2023-02-02T10:22:37;14.40;;;8.05;;
55218;SDS011;65463;43.864;20.136;2023-02-02T10:25:04;15.00;;;8.15;;
55218;SDS011;65463;43.864;20.136;2023-02-02T10:27:36;14.32;;;8.15;;
55218;SDS011;65463;43.864;20.136;2023-02-02T10:30:12;15.40;;;7.97;;
55218;SDS011;65463;43.864;20.136;2023-02-02T10:35:29;15.23;;;8.00;;
55218;SDS011;65463;43.864;20.136;2023-02-02T10:40:36;14.95;;;7.97;;
55218;SDS011;65463;43.864;20.136;2023-02-02T10:46:21;15.60;;;8.68;;
55218;SDS011;65463;43.864;20.136;2023-02-02T10:48:50;14.15;;;8.25;;
55218;SDS011;65463;43.864;20.136;2023-02-02T10:51:27;15.25;;;8.20;;
55218;SDS011;65463;43.864;20.136;2023-02-02T10:53:55;15.20;;;8.35;;
55218;SDS011;65463;43.864;20.136;2023-02-02T10:56:36;13.70;;;7.85;;
55218;SDS011;65463;43.864;20.136;2023-02-02T10:59:13;13.27;;;7.95;;
55218;SDS011;65463;43.864;20.136;2023-02-02T11:01:46;15.57;;;8.88;;
55218;SDS011;65463;43.864;20.136;2023-02-02T11:04:12;12.75;;;7.57;;
55218;SDS011;65463;43.864;20.136;2023-02-02T11:06:57;11.80;;;7.45;;
55218;SDS011;65463;43.864;20.136;2023-02-02T11:09:24;13.70;;;7.50;;
55218;SDS011;65463;43.864;20.136;2023-02-02T11:11:56;15.30;;;7.47;;
55218;SDS011;65463;43.864;20.136;2023-02-02T11:14:44;17.33;;;7.47;;
55218;SDS011;65463;43.864;20.136;2023-02-02T11:17:19;13.57;;;7.47;;
55218;SDS011;65463;43.864;20.136;2023-02-02T11:19:46;12.02;;;7.35;;
55218;SDS011;65463;43.864;20.136;2023-02-02T11:22:24;15.63;;;8.00;;
55218;SDS011;65463;43.864;20.136;2023-02-02T11:24:52;13.73;;;8.00;;
55218;SDS011;65463;43.864;20.136;2023-02-02T11:27:20;13.38;;;7.65;;
55218;SDS011;65463;43.864;20.136;2023-02-02T11:29:51;16.40;;;8.63;;
55218;SDS011;65463;43.864;20.136;2023-02-02T11:34:47;13.18;;;7.55;;
55218;SDS011;65463;43.864;20.136;2023-02-02T11:37:14;14.80;;;8.50;;
55218;SDS011;65463;43.864;20.136;2023-02-02T11:39:41;22.33;;;11.55;;
55218;SDS011;65463;43.864;20.136;2023-02-02T11:42:17;14.13;;;7.03;;
55218;SDS011;65463;43.864;20.136;2023-02-02T11:44:45;13.77;;;7.18;;
55218;SDS011;65463;43.864;20.136;2023-02-02T11:47:18;12.50;;;6.63;;
55218;SDS011;65463;43.864;20.136;2023-02-02T11:49:46;13.13;;;6.30;;
55218;SDS011;65463;43.864;20.136;2023-02-02T11:52:19;11.57;;;6.03;;
55218;SDS011;65463;43.864;20.136;2023-02-02T11:54:51;9.35;;;5.80;;
55218;SDS011;65463;43.864;20.136;2023-02-02T11:57:18;9.35;;;4.78;;
55218;SDS011;65463;43.864;20.136;2023-02-02T11:59:46;8.05;;;4.53;;
55218;SDS011;65463;43.864;20.136;2023-02-02T12:04:42;8.88;;;5.25;;
55218;SDS011;65463;43.864;20.136;2023-02-02T12:10:10;7.57;;;3.90;;
55218;SDS011;65463;43.864;20.136;2023-02-02T12:12:44;7.35;;;3.92;;
55218;SDS011;65463;43.864;20.136;2023-02-02T12:15:21;7.93;;;3.80;;
55218;SDS011;65463;43.864;20.136;2023-02-02T12:17:49;7.30;;;3.80;;
55218;SDS011;65463;43.864;20.136;2023-02-02T12:20:18;5.05;;;3.50;;
55218;SDS011;65463;43.864;20.136;2023-02-02T12:31:07;6.55;;;3.47;;
55218;SDS011;65463;43.864;20.136;2023-02-02T12:33:43;8.38;;;3.30;;
55218;SDS011;65463;43.864;20.136;2023-02-02T12:44:21;7.22;;;3.45;;
55218;SDS011;65463;43.864;20.136;2023-02-02T12:46:52;4.80;;;2.97;;
55218;SDS011;65463;43.864;20.136;2023-02-02T12:49:25;11.07;;;3.92;;
55218;SDS011;65463;43.864;20.136;2023-02-02T12:54:27;7.40;;;3.85;;
55218;SDS011;65463;43.864;20.136;2023-02-02T12:56:58;6.97;;;3.50;;
55218;SDS011;65463;43.864;20.136;2023-02-02T13:02:22;6.07;;;3.20;;
55218;SDS011;65463;43.864;20.136;2023-02-02T13:12:14;12.82;;;5.35;;
55218;SDS011;65463;43.864;20.136;2023-02-02T13:14:46;9.05;;;4.20;;
55218;SDS011;65463;43.864;20.136;2023-02-02T13:17:15;10.23;;;4.50;;
55218;SDS011;65463;43.864;20.136;2023-02-02T13:19:50;9.93;;;5.53;;
55218;SDS011;65463;43.864;20.136;2023-02-02T13:22:28;10.73;;;5.88;;
55218;SDS011;65463;43.864;20.136;2023-02-02T13:24:58;6.88;;;3.60;;
55218;SDS011;65463;43.864;20.136;2023-02-02T13:27:24;7.53;;;3.47;;
55218;SDS011;65463;43.864;20.136;2023-02-02T13:30:02;6.55;;;3.47;;
55218;SDS011;65463;43.864;20.136;2023-02-02T13:35:00;6.75;;;3.45;;
55218;SDS011;65463;43.864;20.136;2023-02-02T13:40:05;7.60;;;3.50;;
55218;SDS011;65463;43.864;20.136;2023-02-02T13:45:01;10.57;;;4.72;;
55218;SDS011;65463;43.864;20.136;2023-02-02T13:47:36;7.20;;;3.67;;
55218;SDS011;65463;43.864;20.136;2023-02-02T13:50:05;7.85;;;3.92;;
55218;SDS011;65463;43.864;20.136;2023-02-02T13:52:56;7.97;;;4.05;;
55218;SDS011;65463;43.864;20.136;2023-02-02T14:00:53;8.73;;;4.70;;
55218;SDS011;65463;43.864;20.136;2023-02-02T14:03:29;9.10;;;4.85;;
55218;SDS011;65463;43.864;20.136;2023-02-02T14:06:18;9.85;;;5.05;;
55218;SDS011;65463;43.864;20.136;2023-02-02T14:11:15;10.00;;;4.68;;
55218;SDS011;65463;43.864;20.136;2023-02-02T14:13:46;9.13;;;5.40;;
55218;SDS011;65463;43.864;20.136;2023-02-02T14:18:59;10.95;;;5.38;;
55218;SDS011;65463;43.864;20.136;2023-02-02T14:24:36;10.77;;;4.45;;
55218;SDS011;65463;43.864;20.136;2023-02-02T14:26:50;7.22;;;4.13;;
55218;SDS011;65463;43.864;20.136;2023-02-02T14:31:56;9.88;;;4.20;;
55218;SDS011;65463;43.864;20.136;2023-02-02T14:39:27;10.98;;;5.53;;
55218;SDS011;65463;43.864;20.136;2023-02-02T14:42:55;7.63;;;3.90;;
55218;SDS011;65463;43.864;20.136;2023-02-02T14:50:11;13.13;;;8.07;;
55218;SDS011;65463;43.864;20.136;2023-02-02T14:52:38;12.25;;;5.32;;
55218;SDS011;65463;43.864;20.136;2023-02-02T14:55:04;7.93;;;4.10;;
55218;SDS011;65463;43.864;20.136;2023-02-02T14:57:30;10.57;;;4.82;;
55218;SDS011;65463;43.864;20.136;2023-02-02T14:59:58;18.77;;;9.35;;
55218;SDS011;65463;43.864;20.136;2023-02-02T15:02:32;13.30;;;5.97;;
55218;SDS011;65463;43.864;20.136;2023-02-02T15:05:42;9.60;;;5.15;;
55218;SDS011;65463;43.864;20.136;2023-02-02T15:07:50;8.55;;;4.22;;
55218;SDS011;65463;43.864;20.136;2023-02-02T15:10:55;20.80;;;11.18;;
55218;SDS011;65463;43.864;20.136;2023-02-02T15:13:06;9.50;;;5.60;;
55218;SDS011;65463;43.864;20.136;2023-02-02T15:15:35;6.60;;;3.30;;
55218;SDS011;65463;43.864;20.136;2023-02-02T15:20:31;6.28;;;3.10;;
55218;SDS011;65463;43.864;20.136;2023-02-02T15:23:06;38.58;;;18.00;;
55218;SDS011;65463;43.864;20.136;2023-02-02T15:25:46;10.15;;;2.92;;
55218;SDS011;65463;43.864;20.136;2023-02-02T15:30:40;8.95;;;3.97;;
55218;SDS011;65463;43.864;20.136;2023-02-02T15:33:14;4.43;;;2.55;;
55218;SDS011;65463;43.864;20.136;2023-02-02T15:35:43;8.90;;;3.70;;
55218;SDS011;65463;43.864;20.136;2023-02-02T15:38:11;47.05;;;22.42;;
55218;SDS011;65463;43.864;20.136;2023-02-02T15:43:05;15.07;;;8.63;;
55218;SDS011;65463;43.864;20.136;2023-02-02T15:48:27;11.20;;;5.60;;
55218;SDS011;65463;43.864;20.136;2023-02-02T15:50:54;10.00;;;4.53;;
55218;SDS011;65463;43.864;20.136;2023-02-02T15:55:54;7.85;;;3.80;;
55218;SDS011;65463;43.864;20.136;2023-02-02T15:58:31;9.02;;;3.28;;
55218;SDS011;65463;43.864;20.136;2023-02-02T16:00:59;5.05;;;2.70;;
55218;SDS011;65463;43.864;20.136;2023-02-02T16:03:29;8.50;;;3.10;;
55218;SDS011;65463;43.864;20.136;2023-02-02T16:05:56;7.30;;;3.92;;
55218;SDS011;65463;43.864;20.136;2023-02-02T16:08:24;15.93;;;4.20;;
55218;SDS011;65463;43.864;20.136;2023-02-02T16:11:02;12.80;;;4.45;;
55218;SDS011;65463;43.864;20.136;2023-02-02T16:13:28;13.85;;;6.38;;
55218;SDS011;65463;43.864;20.136;2023-02-02T16:16:02;5.80;;;3.22;;
55218;SDS011;65463;43.864;20.136;2023-02-02T16:18:30;9.20;;;3.70;;
55218;SDS011;65463;43.864;20.136;2023-02-02T16:20:56;7.32;;;3.97;;
55218;SDS011;65463;43.864;20.136;2023-02-02T16:23:27;8.20;;;4.38;;
55218;SDS011;65463;43.864;20.136;2023-02-02T16:25:55;14.60;;;7.65;;
55218;SDS011;65463;43.864;20.136;2023-02-02T16:28:23;7.70;;;3.60;;
55218;SDS011;65463;43.864;20.136;2023-02-02T16:30:50;6.70;;;3.60;;
55218;SDS011;65463;43.864;20.136;2023-02-02T16:35:52;17.33;;;7.32;;
55218;SDS011;65463;43.864;20.136;2023-02-02T16:41:07;13.23;;;5.47;;
55218;SDS011;65463;43.864;20.136;2023-02-02T16:43:35;14.30;;;6.22;;